sensor_id;sensor_type;location;lat;lon;timestamp;P1;durP1;ratioP1;P2;durP2;ratioP2
12774;SDS011;6451;42.630;23.382;2022-09-03T00:00:06;7.97;;;6.57;;
12774;SDS011;6451;42.630;23.382;2022-09-03T00:02:39;7.88;;;6.50;;
12774;SDS011;6451;42.630;23.382;2022-09-03T00:05:12;8.35;;;6.32;;
12774;SDS011;6451;42.630;23.382;2022-09-03T00:07:46;10.48;;;6.65;;
12774;SDS011;6451;42.630;23.382;2022-09-03T00:10:21;8.00;;;6.18;;
12774;SDS011;6451;42.630;23.382;2022-09-03T00:12:55;7.30;;;6.43;;
12774;SDS011;6451;42.630;23.382;2022-09-03T00:15:24;6.95;;;6.25;;
12774;SDS011;6451;42.630;23.382;2022-09-03T00:17:53;8.63;;;6.32;;
12774;SDS011;6451;42.630;23.382;2022-09-03T00:20:26;6.82;;;6.13;;
12774;SDS011;6451;42.630;23.382;2022-09-03T00:22:58;6.78;;;5.28;;
12774;SDS011;6451;42.630;23.382;2022-09-03T00:25:32;7.05;;;5.93;;
12774;SDS011;6451;42.630;23.382;2022-09-03T00:28:05;7.05;;;6.35;;
12774;SDS011;6451;42.630;23.382;2022-09-03T00:30:38;7.93;;;6.38;;
12774;SDS011;6451;42.630;23.382;2022-09-03T00:33:09;6.78;;;5.90;;
12774;SDS011;6451;42.630;23.382;2022-09-03T00:35:42;7.28;;;6.35;;
12774;SDS011;6451;42.630;23.382;2022-09-03T00:38:13;7.60;;;5.85;;
12774;SDS011;6451;42.630;23.382;2022-09-03T00:40:54;6.97;;;6.28;;
12774;SDS011;6451;42.630;23.382;2022-09-03T00:43:37;7.13;;;6.25;;
12774;SDS011;6451;42.630;23.382;2022-09-03T00:46:17;7.47;;;6.32;;
12774;SDS011;6451;42.630;23.382;2022-09-03T00:48:57;8.02;;;6.07;;
12774;SDS011;6451;42.630;23.382;2022-09-03T00:51:41;7.07;;;5.93;;
12774;SDS011;6451;42.630;23.382;2022-09-03T00:54:17;7.32;;;6.60;;
12774;SDS011;6451;42.630;23.382;2022-09-03T00:56:55;7.60;;;6.78;;
12774;SDS011;6451;42.630;23.382;2022-09-03T00:59:38;8.27;;;6.93;;
12774;SDS011;6451;42.630;23.382;2022-09-03T01:02:15;7.88;;;6.55;;
12774;SDS011;6451;42.630;23.382;2022-09-03T01:04:55;7.93;;;7.05;;
12774;SDS011;6451;42.630;23.382;2022-09-03T01:07:36;7.35;;;6.55;;
12774;SDS011;6451;42.630;23.382;2022-09-03T01:10:14;8.88;;;7.05;;
12774;SDS011;6451;42.630;23.382;2022-09-03T01:12:51;9.73;;;7.03;;
12774;SDS011;6451;42.630;23.382;2022-09-03T01:15:26;8.02;;;7.22;;
12774;SDS011;6451;42.630;23.382;2022-09-03T01:18:01;8.50;;;6.80;;
12774;SDS011;6451;42.630;23.382;2022-09-03T01:20:37;7.72;;;6.93;;
12774;SDS011;6451;42.630;23.382;2022-09-03T01:23:25;7.53;;;6.72;;
12774;SDS011;6451;42.630;23.382;2022-09-03T01:26:18;10.05;;;7.28;;
12774;SDS011;6451;42.630;23.382;2022-09-03T01:29:06;8.13;;;6.90;;
12774;SDS011;6451;42.630;23.382;2022-09-03T01:31:43;7.07;;;6.38;;
12774;SDS011;6451;42.630;23.382;2022-09-03T01:34:19;8.68;;;6.88;;
12774;SDS011;6451;42.630;23.382;2022-09-03T01:36:55;10.10;;;7.72;;
12774;SDS011;6451;42.630;23.382;2022-09-03T01:39:32;7.95;;;7.15;;
12774;SDS011;6451;42.630;23.382;2022-09-03T01:42:13;8.55;;;7.65;;
12774;SDS011;6451;42.630;23.382;2022-09-03T01:45:16;7.80;;;7.00;;
12774;SDS011;6451;42.630;23.382;2022-09-03T01:50:45;7.78;;;6.97;;
12774;SDS011;6451;42.630;23.382;2022-09-03T01:53:20;7.65;;;6.85;;
12774;SDS011;6451;42.630;23.382;2022-09-03T01:56:01;7.55;;;6.75;;
12774;SDS011;6451;42.630;23.382;2022-09-03T01:58:40;7.22;;;6.30;;
12774;SDS011;6451;42.630;23.382;2022-09-03T02:01:13;7.28;;;6.57;;
12774;SDS011;6451;42.630;23.382;2022-09-03T02:03:47;7.70;;;6.90;;
12774;SDS011;6451;42.630;23.382;2022-09-03T02:06:14;9.00;;;6.35;;
12774;SDS011;6451;42.630;23.382;2022-09-03T02:08:44;7.40;;;6.65;;
12774;SDS011;6451;42.630;23.382;2022-09-03T02:11:13;7.03;;;6.32;;
12774;SDS011;6451;42.630;23.382;2022-09-03T02:13:41;8.90;;;6.90;;
12774;SDS011;6451;42.630;23.382;2022-09-03T02:16:13;7.40;;;6.60;;
12774;SDS011;6451;42.630;23.382;2022-09-03T02:18:41;8.93;;;6.60;;
12774;SDS011;6451;42.630;23.382;2022-09-03T02:21:12;8.95;;;7.00;;
12774;SDS011;6451;42.630;23.382;2022-09-03T02:23:42;7.32;;;6.63;;
12774;SDS011;6451;42.630;23.382;2022-09-03T02:26:09;6.88;;;6.20;;
12774;SDS011;6451;42.630;23.382;2022-09-03T02:28:38;7.45;;;6.75;;
12774;SDS011;6451;42.630;23.382;2022-09-03T02:31:05;7.30;;;6.60;;
12774;SDS011;6451;42.630;23.382;2022-09-03T02:33:34;7.10;;;6.40;;
12774;SDS011;6451;42.630;23.382;2022-09-03T02:36:04;8.00;;;6.32;;
12774;SDS011;6451;42.630;23.382;2022-09-03T02:38:33;7.97;;;6.70;;
12774;SDS011;6451;42.630;23.382;2022-09-03T02:41:00;8.10;;;7.30;;
12774;SDS011;6451;42.630;23.382;2022-09-03T02:43:30;7.57;;;6.80;;
12774;SDS011;6451;42.630;23.382;2022-09-03T02:46:03;10.32;;;6.78;;
12774;SDS011;6451;42.630;23.382;2022-09-03T02:48:34;8.38;;;6.63;;
12774;SDS011;6451;42.630;23.382;2022-09-03T02:51:01;7.82;;;6.65;;
12774;SDS011;6451;42.630;23.382;2022-09-03T02:53:30;7.57;;;6.88;;
12774;SDS011;6451;42.630;23.382;2022-09-03T02:55:58;8.13;;;7.32;;
12774;SDS011;6451;42.630;23.382;2022-09-03T02:58:25;7.63;;;6.93;;
12774;SDS011;6451;42.630;23.382;2022-09-03T03:00:52;8.68;;;7.07;;
12774;SDS011;6451;42.630;23.382;2022-09-03T03:03:20;7.88;;;7.05;;
12774;SDS011;6451;42.630;23.382;2022-09-03T03:05:49;7.93;;;7.13;;
12774;SDS011;6451;42.630;23.382;2022-09-03T03:08:18;9.52;;;6.97;;
12774;SDS011;6451;42.630;23.382;2022-09-03T03:10:50;8.75;;;7.85;;
12774;SDS011;6451;42.630;23.382;2022-09-03T03:13:19;8.15;;;7.13;;
12774;SDS011;6451;42.630;23.382;2022-09-03T03:15:46;7.78;;;6.97;;
12774;SDS011;6451;42.630;23.382;2022-09-03T03:18:13;7.93;;;7.13;;
12774;SDS011;6451;42.630;23.382;2022-09-03T03:20:41;8.43;;;7.00;;
12774;SDS011;6451;42.630;23.382;2022-09-03T03:23:10;8.77;;;7.68;;
12774;SDS011;6451;42.630;23.382;2022-09-03T03:25:37;8.07;;;7.03;;
12774;SDS011;6451;42.630;23.382;2022-09-03T03:28:04;8.23;;;7.43;;
12774;SDS011;6451;42.630;23.382;2022-09-03T03:30:32;7.07;;;6.25;;
12774;SDS011;6451;42.630;23.382;2022-09-03T03:33:00;10.25;;;7.75;;
12774;SDS011;6451;42.630;23.382;2022-09-03T03:35:26;8.70;;;7.88;;
12774;SDS011;6451;42.630;23.382;2022-09-03T03:37:53;9.02;;;7.18;;
12774;SDS011;6451;42.630;23.382;2022-09-03T03:40:23;8.90;;;8.00;;
12774;SDS011;6451;42.630;23.382;2022-09-03T03:42:50;9.25;;;7.93;;
12774;SDS011;6451;42.630;23.382;2022-09-03T03:45:18;8.75;;;7.65;;
12774;SDS011;6451;42.630;23.382;2022-09-03T03:47:46;9.23;;;8.20;;
12774;SDS011;6451;42.630;23.382;2022-09-03T03:50:13;8.35;;;7.45;;
12774;SDS011;6451;42.630;23.382;2022-09-03T03:52:41;8.85;;;7.13;;
12774;SDS011;6451;42.630;23.382;2022-09-03T03:55:14;8.07;;;7.28;;
12774;SDS011;6451;42.630;23.382;2022-09-03T03:57:42;8.07;;;7.28;;
12774;SDS011;6451;42.630;23.382;2022-09-03T04:00:09;8.45;;;7.40;;
12774;SDS011;6451;42.630;23.382;2022-09-03T04:02:37;8.68;;;7.32;;
12774;SDS011;6451;42.630;23.382;2022-09-03T04:05:04;8.95;;;7.18;;
12774;SDS011;6451;42.630;23.382;2022-09-03T04:07:31;9.27;;;7.20;;
12774;SDS011;6451;42.630;23.382;2022-09-03T04:09:58;8.40;;;7.50;;
12774;SDS011;6451;42.630;23.382;2022-09-03T04:12:25;8.38;;;7.32;;
12774;SDS011;6451;42.630;23.382;2022-09-03T04:14:54;8.18;;;7.35;;
12774;SDS011;6451;42.630;23.382;2022-09-03T04:17:20;8.52;;;7.70;;
12774;SDS011;6451;42.630;23.382;2022-09-03T04:19:47;9.05;;;8.15;;
12774;SDS011;6451;42.630;23.382;2022-09-03T04:22:14;9.27;;;7.40;;
12774;SDS011;6451;42.630;23.382;2022-09-03T04:24:43;8.25;;;7.40;;
12774;SDS011;6451;42.630;23.382;2022-09-03T04:27:10;9.23;;;7.57;;
12774;SDS011;6451;42.630;23.382;2022-09-03T04:29:36;8.57;;;7.55;;
12774;SDS011;6451;42.630;23.382;2022-09-03T04:32:05;10.77;;;7.93;;
12774;SDS011;6451;42.630;23.382;2022-09-03T04:34:49;9.23;;;7.15;;
12774;SDS011;6451;42.630;23.382;2022-09-03T04:37:16;9.05;;;7.18;;
12774;SDS011;6451;42.630;23.382;2022-09-03T04:39:43;7.78;;;7.00;;
12774;SDS011;6451;42.630;23.382;2022-09-03T04:42:10;9.93;;;7.65;;
12774;SDS011;6451;42.630;23.382;2022-09-03T04:44:37;7.78;;;7.05;;
12774;SDS011;6451;42.630;23.382;2022-09-03T04:47:06;8.20;;;7.35;;
12774;SDS011;6451;42.630;23.382;2022-09-03T04:49:34;7.47;;;6.78;;
12774;SDS011;6451;42.630;23.382;2022-09-03T04:52:01;10.30;;;7.65;;
12774;SDS011;6451;42.630;23.382;2022-09-03T04:54:29;7.57;;;6.78;;
12774;SDS011;6451;42.630;23.382;2022-09-03T04:56:56;8.15;;;6.97;;
12774;SDS011;6451;42.630;23.382;2022-09-03T04:59:23;8.18;;;7.30;;
12774;SDS011;6451;42.630;23.382;2022-09-03T05:01:50;9.48;;;7.68;;
12774;SDS011;6451;42.630;23.382;2022-09-03T05:04:21;8.18;;;6.90;;
12774;SDS011;6451;42.630;23.382;2022-09-03T05:06:50;8.80;;;7.60;;
12774;SDS011;6451;42.630;23.382;2022-09-03T05:09:17;7.13;;;6.43;;
12774;SDS011;6451;42.630;23.382;2022-09-03T05:11:44;6.95;;;6.20;;
12774;SDS011;6451;42.630;23.382;2022-09-03T05:14:12;8.55;;;6.57;;
12774;SDS011;6451;42.630;23.382;2022-09-03T05:16:38;9.60;;;6.10;;
12774;SDS011;6451;42.630;23.382;2022-09-03T05:19:05;6.82;;;6.13;;
12774;SDS011;6451;42.630;23.382;2022-09-03T05:21:35;7.90;;;6.28;;
12774;SDS011;6451;42.630;23.382;2022-09-03T05:24:02;8.30;;;6.65;;
12774;SDS011;6451;42.630;23.382;2022-09-03T05:26:30;8.65;;;6.40;;
12774;SDS011;6451;42.630;23.382;2022-09-03T05:28:59;7.65;;;6.75;;
12774;SDS011;6451;42.630;23.382;2022-09-03T05:31:27;7.53;;;6.70;;
12774;SDS011;6451;42.630;23.382;2022-09-03T05:33:56;7.03;;;6.25;;
12774;SDS011;6451;42.630;23.382;2022-09-03T05:36:25;8.52;;;7.45;;
12774;SDS011;6451;42.630;23.382;2022-09-03T05:38:54;8.25;;;7.00;;
12774;SDS011;6451;42.630;23.382;2022-09-03T05:41:23;7.75;;;7.05;;
12774;SDS011;6451;42.630;23.382;2022-09-03T05:43:50;8.13;;;7.13;;
12774;SDS011;6451;42.630;23.382;2022-09-03T05:46:20;9.32;;;7.15;;
12774;SDS011;6451;42.630;23.382;2022-09-03T05:48:50;7.82;;;6.80;;
12774;SDS011;6451;42.630;23.382;2022-09-03T05:51:18;7.00;;;6.10;;
12774;SDS011;6451;42.630;23.382;2022-09-03T05:53:45;7.15;;;6.20;;
12774;SDS011;6451;42.630;23.382;2022-09-03T05:56:15;7.63;;;6.82;;
12774;SDS011;6451;42.630;23.382;2022-09-03T05:58:44;8.73;;;6.10;;
12774;SDS011;6451;42.630;23.382;2022-09-03T06:01:13;6.50;;;5.82;;
12774;SDS011;6451;42.630;23.382;2022-09-03T06:03:40;6.85;;;6.20;;
12774;SDS011;6451;42.630;23.382;2022-09-03T06:06:09;6.30;;;5.70;;
12774;SDS011;6451;42.630;23.382;2022-09-03T06:08:38;8.45;;;6.30;;
12774;SDS011;6451;42.630;23.382;2022-09-03T06:11:05;6.50;;;5.85;;
12774;SDS011;6451;42.630;23.382;2022-09-03T06:13:34;8.00;;;6.53;;
12774;SDS011;6451;42.630;23.382;2022-09-03T06:16:03;6.65;;;6.05;;
12774;SDS011;6451;42.630;23.382;2022-09-03T06:18:31;6.80;;;6.20;;
12774;SDS011;6451;42.630;23.382;2022-09-03T06:20:58;8.27;;;5.97;;
12774;SDS011;6451;42.630;23.382;2022-09-03T06:23:28;6.45;;;5.78;;
12774;SDS011;6451;42.630;23.382;2022-09-03T06:25:59;6.25;;;5.65;;
12774;SDS011;6451;42.630;23.382;2022-09-03T06:28:26;6.65;;;6.03;;
12774;SDS011;6451;42.630;23.382;2022-09-03T06:30:57;6.88;;;6.18;;
12774;SDS011;6451;42.630;23.382;2022-09-03T06:33:25;6.72;;;6.07;;
12774;SDS011;6451;42.630;23.382;2022-09-03T06:35:55;6.57;;;5.80;;
12774;SDS011;6451;42.630;23.382;2022-09-03T06:38:25;5.90;;;5.40;;
12774;SDS011;6451;42.630;23.382;2022-09-03T06:40:53;6.38;;;5.70;;
12774;SDS011;6451;42.630;23.382;2022-09-03T06:43:21;6.53;;;5.93;;
12774;SDS011;6451;42.630;23.382;2022-09-03T06:45:55;6.15;;;5.40;;
12774;SDS011;6451;42.630;23.382;2022-09-03T06:48:25;6.18;;;5.57;;
12774;SDS011;6451;42.630;23.382;2022-09-03T06:50:54;6.28;;;5.68;;
12774;SDS011;6451;42.630;23.382;2022-09-03T06:53:23;6.75;;;6.13;;
12774;SDS011;6451;42.630;23.382;2022-09-03T06:55:52;6.43;;;5.82;;
12774;SDS011;6451;42.630;23.382;2022-09-03T06:58:20;7.53;;;6.60;;
12774;SDS011;6451;42.630;23.382;2022-09-03T07:00:48;7.32;;;6.53;;
12774;SDS011;6451;42.630;23.382;2022-09-03T07:03:16;8.80;;;6.53;;
12774;SDS011;6451;42.630;23.382;2022-09-03T07:05:45;7.93;;;7.10;;
12774;SDS011;6451;42.630;23.382;2022-09-03T07:08:12;10.40;;;6.63;;
12774;SDS011;6451;42.630;23.382;2022-09-03T07:10:39;7.50;;;6.80;;
12774;SDS011;6451;42.630;23.382;2022-09-03T07:13:07;7.18;;;6.47;;
12774;SDS011;6451;42.630;23.382;2022-09-03T07:15:34;7.32;;;6.53;;
12774;SDS011;6451;42.630;23.382;2022-09-03T07:18:01;7.32;;;6.63;;
12774;SDS011;6451;42.630;23.382;2022-09-03T07:20:28;6.63;;;6.03;;
12774;SDS011;6451;42.630;23.382;2022-09-03T07:22:56;7.32;;;6.07;;
12774;SDS011;6451;42.630;23.382;2022-09-03T07:25:23;6.38;;;5.78;;
12774;SDS011;6451;42.630;23.382;2022-09-03T07:27:51;6.40;;;5.80;;
12774;SDS011;6451;42.630;23.382;2022-09-03T07:30:18;6.38;;;5.78;;
12774;SDS011;6451;42.630;23.382;2022-09-03T07:32:45;5.90;;;5.40;;
12774;SDS011;6451;42.630;23.382;2022-09-03T07:35:12;7.07;;;6.32;;
12774;SDS011;6451;42.630;23.382;2022-09-03T07:37:39;6.55;;;5.85;;
12774;SDS011;6451;42.630;23.382;2022-09-03T07:40:09;6.60;;;6.00;;
12774;SDS011;6451;42.630;23.382;2022-09-03T07:42:36;8.27;;;6.85;;
12774;SDS011;6451;42.630;23.382;2022-09-03T07:45:05;7.32;;;6.63;;
12774;SDS011;6451;42.630;23.382;2022-09-03T07:47:35;6.07;;;5.47;;
12774;SDS011;6451;42.630;23.382;2022-09-03T07:50:02;5.70;;;5.20;;
12774;SDS011;6451;42.630;23.382;2022-09-03T07:52:30;5.82;;;5.32;;
12774;SDS011;6451;42.630;23.382;2022-09-03T07:54:57;6.15;;;5.65;;
12774;SDS011;6451;42.630;23.382;2022-09-03T07:57:26;7.03;;;6.43;;
12774;SDS011;6451;42.630;23.382;2022-09-03T07:59:52;6.95;;;6.25;;
12774;SDS011;6451;42.630;23.382;2022-09-03T08:02:20;6.63;;;5.93;;
12774;SDS011;6451;42.630;23.382;2022-09-03T08:04:46;6.50;;;5.93;;
12774;SDS011;6451;42.630;23.382;2022-09-03T08:07:13;6.88;;;5.80;;
12774;SDS011;6451;42.630;23.382;2022-09-03T08:09:40;7.32;;;5.53;;
12774;SDS011;6451;42.630;23.382;2022-09-03T08:12:07;5.97;;;5.38;;
12774;SDS011;6451;42.630;23.382;2022-09-03T08:14:35;5.78;;;5.28;;
12774;SDS011;6451;42.630;23.382;2022-09-03T08:17:02;7.10;;;6.40;;
12774;SDS011;6451;42.630;23.382;2022-09-03T08:19:29;6.68;;;5.88;;
12774;SDS011;6451;42.630;23.382;2022-09-03T08:21:56;5.50;;;4.93;;
12774;SDS011;6451;42.630;23.382;2022-09-03T08:24:23;7.85;;;7.05;;
12774;SDS011;6451;42.630;23.382;2022-09-03T08:26:50;8.18;;;7.47;;
12774;SDS011;6451;42.630;23.382;2022-09-03T08:29:17;5.75;;;5.25;;
12774;SDS011;6451;42.630;23.382;2022-09-03T08:31:46;5.13;;;4.72;;
12774;SDS011;6451;42.630;23.382;2022-09-03T08:34:13;5.47;;;5.07;;
12774;SDS011;6451;42.630;23.382;2022-09-03T08:36:41;5.50;;;5.00;;
12774;SDS011;6451;42.630;23.382;2022-09-03T08:39:09;5.90;;;5.40;;
12774;SDS011;6451;42.630;23.382;2022-09-03T08:41:43;4.47;;;4.07;;
12774;SDS011;6451;42.630;23.382;2022-09-03T08:44:38;6.25;;;5.65;;
12774;SDS011;6451;42.630;23.382;2022-09-03T08:47:13;6.97;;;6.38;;
12774;SDS011;6451;42.630;23.382;2022-09-03T08:49:47;5.20;;;4.80;;
12774;SDS011;6451;42.630;23.382;2022-09-03T08:52:20;6.20;;;5.60;;
12774;SDS011;6451;42.630;23.382;2022-09-03T08:54:54;5.10;;;4.70;;
12774;SDS011;6451;42.630;23.382;2022-09-03T08:57:28;5.30;;;4.85;;
12774;SDS011;6451;42.630;23.382;2022-09-03T09:00:02;6.40;;;5.75;;
12774;SDS011;6451;42.630;23.382;2022-09-03T09:02:34;6.20;;;5.60;;
12774;SDS011;6451;42.630;23.382;2022-09-03T09:05:11;6.25;;;5.65;;
12774;SDS011;6451;42.630;23.382;2022-09-03T09:07:54;10.48;;;5.57;;
12774;SDS011;6451;42.630;23.382;2022-09-03T09:10:30;5.43;;;4.93;;
12774;SDS011;6451;42.630;23.382;2022-09-03T09:13:06;5.20;;;4.65;;
12774;SDS011;6451;42.630;23.382;2022-09-03T09:15:42;5.50;;;5.00;;
12774;SDS011;6451;42.630;23.382;2022-09-03T09:18:21;6.90;;;5.47;;
12774;SDS011;6451;42.630;23.382;2022-09-03T09:20:55;5.72;;;4.88;;
12774;SDS011;6451;42.630;23.382;2022-09-03T09:23:26;5.70;;;5.28;;
12774;SDS011;6451;42.630;23.382;2022-09-03T09:25:56;6.53;;;5.38;;
12774;SDS011;6451;42.630;23.382;2022-09-03T09:28:28;6.35;;;5.85;;
12774;SDS011;6451;42.630;23.382;2022-09-03T09:31:00;5.93;;;5.30;;
12774;SDS011;6451;42.630;23.382;2022-09-03T09:33:30;5.93;;;5.43;;
12774;SDS011;6451;42.630;23.382;2022-09-03T09:35:59;6.03;;;5.43;;
12774;SDS011;6451;42.630;23.382;2022-09-03T09:38:29;6.10;;;5.60;;
12774;SDS011;6451;42.630;23.382;2022-09-03T09:41:06;6.07;;;5.47;;
12774;SDS011;6451;42.630;23.382;2022-09-03T09:43:34;6.57;;;5.97;;
12774;SDS011;6451;42.630;23.382;2022-09-03T09:46:05;6.03;;;5.50;;
12774;SDS011;6451;42.630;23.382;2022-09-03T09:48:38;5.95;;;5.45;;
12774;SDS011;6451;42.630;23.382;2022-09-03T09:51:16;6.10;;;5.60;;
12774;SDS011;6451;42.630;23.382;2022-09-03T09:53:45;6.15;;;5.65;;
12774;SDS011;6451;42.630;23.382;2022-09-03T09:56:19;5.18;;;4.78;;
12774;SDS011;6451;42.630;23.382;2022-09-03T09:58:48;6.45;;;5.32;;
12774;SDS011;6451;42.630;23.382;2022-09-03T10:01:17;5.63;;;5.20;;
12774;SDS011;6451;42.630;23.382;2022-09-03T10:03:51;6.45;;;5.85;;
12774;SDS011;6451;42.630;23.382;2022-09-03T10:06:22;6.35;;;5.72;;
12774;SDS011;6451;42.630;23.382;2022-09-03T10:09:08;5.53;;;5.00;;
12774;SDS011;6451;42.630;23.382;2022-09-03T10:11:37;6.03;;;5.53;;
12774;SDS011;6451;42.630;23.382;2022-09-03T10:14:09;5.90;;;5.40;;
12774;SDS011;6451;42.630;23.382;2022-09-03T10:16:43;6.50;;;6.00;;
12774;SDS011;6451;42.630;23.382;2022-09-03T10:19:16;6.20;;;5.70;;
12774;SDS011;6451;42.630;23.382;2022-09-03T10:21:47;6.88;;;6.28;;
12774;SDS011;6451;42.630;23.382;2022-09-03T10:24:27;6.93;;;5.95;;
12774;SDS011;6451;42.630;23.382;2022-09-03T10:27:04;6.93;;;6.18;;
12774;SDS011;6451;42.630;23.382;2022-09-03T10:29:34;6.75;;;6.13;;
12774;SDS011;6451;42.630;23.382;2022-09-03T10:32:11;6.30;;;5.70;;
12774;SDS011;6451;42.630;23.382;2022-09-03T10:34:57;6.93;;;5.80;;
12774;SDS011;6451;42.630;23.382;2022-09-03T10:37:33;7.18;;;6.47;;
12774;SDS011;6451;42.630;23.382;2022-09-03T10:42:59;5.88;;;5.35;;
12774;SDS011;6451;42.630;23.382;2022-09-03T10:45:36;6.15;;;5.63;;
12774;SDS011;6451;42.630;23.382;2022-09-03T10:48:13;7.28;;;5.25;;
12774;SDS011;6451;42.630;23.382;2022-09-03T10:50:51;5.90;;;5.40;;
12774;SDS011;6451;42.630;23.382;2022-09-03T10:53:25;6.20;;;5.40;;
12774;SDS011;6451;42.630;23.382;2022-09-03T10:56:02;6.25;;;5.47;;
12774;SDS011;6451;42.630;23.382;2022-09-03T11:01:34;6.18;;;5.57;;
12774;SDS011;6451;42.630;23.382;2022-09-03T11:04:24;5.82;;;5.32;;
12774;SDS011;6451;42.630;23.382;2022-09-03T11:07:01;6.13;;;5.60;;
12774;SDS011;6451;42.630;23.382;2022-09-03T11:09:32;7.00;;;5.95;;
12774;SDS011;6451;42.630;23.382;2022-09-03T11:12:05;6.05;;;5.55;;
12774;SDS011;6451;42.630;23.382;2022-09-03T11:14:38;6.40;;;5.80;;
12774;SDS011;6451;42.630;23.382;2022-09-03T11:17:08;6.03;;;5.43;;
12774;SDS011;6451;42.630;23.382;2022-09-03T11:19:41;6.00;;;5.35;;
12774;SDS011;6451;42.630;23.382;2022-09-03T11:22:16;5.55;;;5.05;;
12774;SDS011;6451;42.630;23.382;2022-09-03T11:24:49;5.65;;;5.15;;
12774;SDS011;6451;42.630;23.382;2022-09-03T11:27:26;5.40;;;4.97;;
12774;SDS011;6451;42.630;23.382;2022-09-03T11:30:04;5.43;;;4.93;;
12774;SDS011;6451;42.630;23.382;2022-09-03T11:32:39;5.72;;;5.18;;
12774;SDS011;6451;42.630;23.382;2022-09-03T11:35:14;5.55;;;5.05;;
12774;SDS011;6451;42.630;23.382;2022-09-03T11:37:51;4.95;;;4.57;;
12774;SDS011;6451;42.630;23.382;2022-09-03T11:40:20;5.20;;;4.80;;
12774;SDS011;6451;42.630;23.382;2022-09-03T11:43:04;4.50;;;4.20;;
12774;SDS011;6451;42.630;23.382;2022-09-03T11:45:33;4.60;;;4.20;;
12774;SDS011;6451;42.630;23.382;2022-09-03T11:48:15;4.60;;;4.28;;
12774;SDS011;6451;42.630;23.382;2022-09-03T11:50:50;4.40;;;4.10;;
12774;SDS011;6451;42.630;23.382;2022-09-03T11:53:23;5.07;;;4.57;;
12774;SDS011;6451;42.630;23.382;2022-09-03T11:55:53;4.80;;;4.40;;
12774;SDS011;6451;42.630;23.382;2022-09-03T11:58:25;4.63;;;4.22;;
12774;SDS011;6451;42.630;23.382;2022-09-03T12:00:58;4.75;;;4.35;;
12774;SDS011;6451;42.630;23.382;2022-09-03T12:03:28;4.07;;;3.78;;
12774;SDS011;6451;42.630;23.382;2022-09-03T12:06:07;4.65;;;4.25;;
12774;SDS011;6451;42.630;23.382;2022-09-03T12:11:58;4.80;;;4.28;;
12774;SDS011;6451;42.630;23.382;2022-09-03T12:14:35;4.57;;;4.20;;
12774;SDS011;6451;42.630;23.382;2022-09-03T12:17:15;4.50;;;4.10;;
12774;SDS011;6451;42.630;23.382;2022-09-03T12:19:49;4.85;;;4.35;;
12774;SDS011;6451;42.630;23.382;2022-09-03T12:22:19;5.80;;;4.75;;
12774;SDS011;6451;42.630;23.382;2022-09-03T12:24:48;4.80;;;4.35;;
12774;SDS011;6451;42.630;23.382;2022-09-03T12:27:18;4.55;;;4.05;;
12774;SDS011;6451;42.630;23.382;2022-09-03T12:29:52;5.13;;;4.13;;
12774;SDS011;6451;42.630;23.382;2022-09-03T12:32:24;4.30;;;3.90;;
12774;SDS011;6451;42.630;23.382;2022-09-03T12:34:52;4.45;;;4.05;;
12774;SDS011;6451;42.630;23.382;2022-09-03T12:37:20;5.72;;;5.22;;
12774;SDS011;6451;42.630;23.382;2022-09-03T12:39:49;5.47;;;4.10;;
12774;SDS011;6451;42.630;23.382;2022-09-03T12:42:19;4.28;;;3.97;;
12774;SDS011;6451;42.630;23.382;2022-09-03T12:44:50;4.68;;;4.28;;
12774;SDS011;6451;42.630;23.382;2022-09-03T12:47:18;4.65;;;4.25;;
12774;SDS011;6451;42.630;23.382;2022-09-03T12:49:47;4.78;;;4.38;;
12774;SDS011;6451;42.630;23.382;2022-09-03T12:52:16;5.90;;;4.70;;
12774;SDS011;6451;42.630;23.382;2022-09-03T12:54:48;5.53;;;4.90;;
12774;SDS011;6451;42.630;23.382;2022-09-03T12:57:22;5.00;;;4.60;;
12774;SDS011;6451;42.630;23.382;2022-09-03T12:59:55;6.38;;;5.20;;
12774;SDS011;6451;42.630;23.382;2022-09-03T13:02:27;5.47;;;4.82;;
12774;SDS011;6451;42.630;23.382;2022-09-03T13:05:01;5.55;;;4.40;;
12774;SDS011;6451;42.630;23.382;2022-09-03T13:07:30;4.47;;;4.13;;
12774;SDS011;6451;42.630;23.382;2022-09-03T13:10:02;6.40;;;4.60;;
12774;SDS011;6451;42.630;23.382;2022-09-03T13:12:34;4.18;;;3.78;;
12774;SDS011;6451;42.630;23.382;2022-09-03T13:15:16;4.55;;;4.15;;
12774;SDS011;6451;42.630;23.382;2022-09-03T13:17:52;4.70;;;4.28;;
12774;SDS011;6451;42.630;23.382;2022-09-03T13:20:32;4.50;;;4.15;;
12774;SDS011;6451;42.630;23.382;2022-09-03T13:23:07;4.28;;;3.90;;
12774;SDS011;6451;42.630;23.382;2022-09-03T13:25:41;4.30;;;4.00;;
12774;SDS011;6451;42.630;23.382;2022-09-03T13:28:22;4.40;;;4.00;;
12774;SDS011;6451;42.630;23.382;2022-09-03T13:30:59;4.75;;;3.80;;
12774;SDS011;6451;42.630;23.382;2022-09-03T13:33:33;4.60;;;4.20;;
12774;SDS011;6451;42.630;23.382;2022-09-03T13:36:08;4.88;;;4.30;;
12774;SDS011;6451;42.630;23.382;2022-09-03T13:38:44;5.65;;;4.60;;
12774;SDS011;6451;42.630;23.382;2022-09-03T13:41:17;4.70;;;4.18;;
12774;SDS011;6451;42.630;23.382;2022-09-03T13:44:00;4.53;;;4.13;;
12774;SDS011;6451;42.630;23.382;2022-09-03T13:46:34;4.30;;;4.00;;
12774;SDS011;6451;42.630;23.382;2022-09-03T13:49:12;4.28;;;3.88;;
12774;SDS011;6451;42.630;23.382;2022-09-03T13:52:04;4.70;;;3.97;;
12774;SDS011;6451;42.630;23.382;2022-09-03T13:54:41;5.32;;;4.55;;
12774;SDS011;6451;42.630;23.382;2022-09-03T13:57:17;3.60;;;3.30;;
12774;SDS011;6451;42.630;23.382;2022-09-03T13:59:55;3.40;;;3.10;;
12774;SDS011;6451;42.630;23.382;2022-09-03T14:02:27;3.30;;;3.03;;
12774;SDS011;6451;42.630;23.382;2022-09-03T14:05:03;4.05;;;3.63;;
12774;SDS011;6451;42.630;23.382;2022-09-03T14:07:42;3.58;;;3.28;;
12774;SDS011;6451;42.630;23.382;2022-09-03T14:10:20;3.55;;;3.00;;
12774;SDS011;6451;42.630;23.382;2022-09-03T14:12:52;3.53;;;3.22;;
12774;SDS011;6451;42.630;23.382;2022-09-03T14:15:32;3.83;;;3.50;;
12774;SDS011;6451;42.630;23.382;2022-09-03T14:18:11;4.57;;;3.28;;
12774;SDS011;6451;42.630;23.382;2022-09-03T14:20:44;3.63;;;3.33;;
12774;SDS011;6451;42.630;23.382;2022-09-03T14:23:22;3.88;;;3.55;;
12774;SDS011;6451;42.630;23.382;2022-09-03T14:25:59;3.50;;;3.20;;
12774;SDS011;6451;42.630;23.382;2022-09-03T14:28:29;3.03;;;2.83;;
12774;SDS011;6451;42.630;23.382;2022-09-03T14:31:04;4.43;;;3.50;;
12774;SDS011;6451;42.630;23.382;2022-09-03T14:33:41;3.70;;;2.92;;
12774;SDS011;6451;42.630;23.382;2022-09-03T14:36:15;3.58;;;3.28;;
12774;SDS011;6451;42.630;23.382;2022-09-03T14:38:56;3.78;;;3.47;;
12774;SDS011;6451;42.630;23.382;2022-09-03T14:41:43;3.70;;;3.40;;
12774;SDS011;6451;42.630;23.382;2022-09-03T14:47:24;5.00;;;3.80;;
12774;SDS011;6451;42.630;23.382;2022-09-03T14:50:09;4.28;;;3.90;;
12774;SDS011;6451;42.630;23.382;2022-09-03T14:55:42;4.65;;;4.25;;
12774;SDS011;6451;42.630;23.382;2022-09-03T14:58:24;4.47;;;4.07;;
12774;SDS011;6451;42.630;23.382;2022-09-03T15:01:02;4.05;;;3.75;;
12774;SDS011;6451;42.630;23.382;2022-09-03T15:06:44;3.95;;;3.65;;
12774;SDS011;6451;42.630;23.382;2022-09-03T15:09:20;4.50;;;4.10;;
12774;SDS011;6451;42.630;23.382;2022-09-03T15:11:54;4.30;;;3.90;;
12774;SDS011;6451;42.630;23.382;2022-09-03T15:14:25;4.28;;;3.88;;
12774;SDS011;6451;42.630;23.382;2022-09-03T15:16:58;4.10;;;3.50;;
12774;SDS011;6451;42.630;23.382;2022-09-03T15:19:39;4.20;;;3.80;;
12774;SDS011;6451;42.630;23.382;2022-09-03T15:22:21;4.90;;;3.70;;
12774;SDS011;6451;42.630;23.382;2022-09-03T15:25:03;3.97;;;3.67;;
12774;SDS011;6451;42.630;23.382;2022-09-03T15:27:40;3.65;;;3.35;;
12774;SDS011;6451;42.630;23.382;2022-09-03T15:30:20;4.88;;;3.97;;
12774;SDS011;6451;42.630;23.382;2022-09-03T15:32:49;3.95;;;3.53;;
12774;SDS011;6451;42.630;23.382;2022-09-03T15:35:36;4.32;;;3.92;;
12774;SDS011;6451;42.630;23.382;2022-09-03T15:38:18;4.22;;;3.83;;